sensor_id;sensor_type;location;lat;lon;timestamp;temperature;humidity
1137;DHT22;557;48.466;7.950;2023-04-01T00:02:35;9.40;92.30
1137;DHT22;557;48.466;7.950;2023-04-01T00:05:22;9.40;74.60
1137;DHT22;557;48.466;7.950;2023-04-01T00:08:12;9.40;77.50
1137;DHT22;557;48.466;7.950;2023-04-01T00:10:59;9.40;53.10
1137;DHT22;557;48.466;7.950;2023-04-01T00:13:47;9.40;40.60
1137;DHT22;557;48.466;7.950;2023-04-01T00:16:35;9.40;10.60
1137;DHT22;557;48.466;7.950;2023-04-01T00:19:23;9.40;1.00
1137;DHT22;557;48.466;7.950;2023-04-01T00:22:10;9.40;1.00
1137;DHT22;557;48.466;7.950;2023-04-01T00:24:59;9.40;1.00
1137;DHT22;557;48.466;7.950;2023-04-01T00:27:46;9.40;1.00
1137;DHT22;557;48.466;7.950;2023-04-01T00:30:35;9.40;1.00
1137;DHT22;557;48.466;7.950;2023-04-01T00:33:22;9.40;1.00
1137;DHT22;557;48.466;7.950;2023-04-01T00:36:11;9.40;1.00
1137;DHT22;557;48.466;7.950;2023-04-01T00:38:59;9.30;1.00
1137;DHT22;557;48.466;7.950;2023-04-01T00:41:47;9.30;1.00
1137;DHT22;557;48.466;7.950;2023-04-01T00:44:37;9.20;1.00
1137;DHT22;557;48.466;7.950;2023-04-01T00:47:25;9.10;1.60
1137;DHT22;557;48.466;7.950;2023-04-01T00:50:13;9.10;1.00
1137;DHT22;557;48.466;7.950;2023-04-01T00:53:01;9.10;1.00
1137;DHT22;557;48.466;7.950;2023-04-01T00:55:54;9.10;1.00
1137;DHT22;557;48.466;7.950;2023-04-01T00:58:48;9.10;1.00
1137;DHT22;557;48.466;7.950;2023-04-01T01:01:37;9.00;1.00
1137;DHT22;557;48.466;7.950;2023-04-01T01:04:26;9.00;1.00
1137;DHT22;557;48.466;7.950;2023-04-01T01:07:20;9.00;1.00
1137;DHT22;557;48.466;7.950;2023-04-01T01:10:17;8.90;1.00
1137;DHT22;557;48.466;7.950;2023-04-01T01:13:11;8.90;19.10
1137;DHT22;557;48.466;7.950;2023-04-01T01:16:10;8.90;24.60
1137;DHT22;557;48.466;7.950;2023-04-01T01:19:08;8.80;19.50
1137;DHT22;557;48.466;7.950;2023-04-01T01:22:11;8.90;20.20
1137;DHT22;557;48.466;7.950;2023-04-01T01:25:16;8.90;25.20
1137;DHT22;557;48.466;7.950;2023-04-01T01:28:19;8.90;40.60
1137;DHT22;557;48.466;7.950;2023-04-01T01:31:16;8.90;49.00
1137;DHT22;557;48.466;7.950;2023-04-01T01:34:14;8.80;61.90
1137;DHT22;557;48.466;7.950;2023-04-01T01:37:10;8.90;81.20
1137;DHT22;557;48.466;7.950;2023-04-01T01:40:00;8.80;91.80
1137;DHT22;557;48.466;7.950;2023-04-01T01:42:51;8.90;96.00
1137;DHT22;557;48.466;7.950;2023-04-01T01:45:44;8.80;90.80
1137;DHT22;557;48.466;7.950;2023-04-01T01:48:34;8.80;93.70
1137;DHT22;557;48.466;7.950;2023-04-01T01:51:22;8.80;99.90
1137;DHT22;557;48.466;7.950;2023-04-01T01:54:13;8.80;80.60
1137;DHT22;557;48.466;7.950;2023-04-01T01:57:06;8.80;57.90
1137;DHT22;557;48.466;7.950;2023-04-01T01:59:56;8.80;66.50
1137;DHT22;557;48.466;7.950;2023-04-01T02:02:47;8.80;35.90
1137;DHT22;557;48.466;7.950;2023-04-01T02:05:35;8.90;16.60
1137;DHT22;557;48.466;7.950;2023-04-01T02:08:26;8.90;33.00
1137;DHT22;557;48.466;7.950;2023-04-01T02:11:17;8.90;33.60
1137;DHT22;557;48.466;7.950;2023-04-01T02:14:08;8.90;48.60
1137;DHT22;557;48.466;7.950;2023-04-01T02:16:59;8.90;59.60
1137;DHT22;557;48.466;7.950;2023-04-01T02:19:52;8.80;32.70
1137;DHT22;557;48.466;7.950;2023-04-01T02:22:42;8.90;13.90
1137;DHT22;557;48.466;7.950;2023-04-01T02:25:36;8.90;1.00
1137;DHT22;557;48.466;7.950;2023-04-01T02:28:26;9.00;1.00
1137;DHT22;557;48.466;7.950;2023-04-01T02:31:15;9.00;1.00
1137;DHT22;557;48.466;7.950;2023-04-01T02:34:04;8.90;1.00
1137;DHT22;557;48.466;7.950;2023-04-01T02:36:51;8.90;1.00
1137;DHT22;557;48.466;7.950;2023-04-01T02:39:39;8.90;1.00
1137;DHT22;557;48.466;7.950;2023-04-01T02:42:28;9.00;1.00
1137;DHT22;557;48.466;7.950;2023-04-01T02:45:17;9.10;1.00
1137;DHT22;557;48.466;7.950;2023-04-01T02:48:05;9.10;1.00
1137;DHT22;557;48.466;7.950;2023-04-01T02:50:52;9.10;1.00
1137;DHT22;557;48.466;7.950;2023-04-01T02:53:40;9.10;11.70
1137;DHT22;557;48.466;7.950;2023-04-01T02:56:27;9.20;11.00
1137;DHT22;557;48.466;7.950;2023-04-01T02:59:15;9.30;1.50
1137;DHT22;557;48.466;7.950;2023-04-01T03:02:03;9.30;1.30
1137;DHT22;557;48.466;7.950;2023-04-01T03:04:51;9.40;1.00
1137;DHT22;557;48.466;7.950;2023-04-01T03:07:38;9.40;1.00
1137;DHT22;557;48.466;7.950;2023-04-01T03:10:25;9.50;1.00
1137;DHT22;557;48.466;7.950;2023-04-01T03:13:13;9.50;1.00
1137;DHT22;557;48.466;7.950;2023-04-01T03:16:00;9.50;1.00
1137;DHT22;557;48.466;7.950;2023-04-01T03:18:49;9.50;1.00
1137;DHT22;557;48.466;7.950;2023-04-01T03:21:38;9.50;1.00
1137;DHT22;557;48.466;7.950;2023-04-01T03:24:26;9.50;1.00
1137;DHT22;557;48.466;7.950;2023-04-01T03:27:13;9.50;1.00
1137;DHT22;557;48.466;7.950;2023-04-01T03:30:01;9.50;1.00
1137;DHT22;557;48.466;7.950;2023-04-01T03:32:48;9.50;1.00
1137;DHT22;557;48.466;7.950;2023-04-01T03:35:37;9.50;1.00
1137;DHT22;557;48.466;7.950;2023-04-01T03:38:24;9.50;1.00
1137;DHT22;557;48.466;7.950;2023-04-01T03:41:12;9.50;1.00
1137;DHT22;557;48.466;7.950;2023-04-01T03:44:00;9.50;1.00
1137;DHT22;557;48.466;7.950;2023-04-01T03:46:47;9.50;1.00
1137;DHT22;557;48.466;7.950;2023-04-01T03:49:35;9.60;1.00
1137;DHT22;557;48.466;7.950;2023-04-01T03:52:24;9.50;1.00
1137;DHT22;557;48.466;7.950;2023-04-01T03:55:11;9.50;1.00
1137;DHT22;557;48.466;7.950;2023-04-01T03:57:59;9.50;1.00
1137;DHT22;557;48.466;7.950;2023-04-01T04:00:48;9.50;1.00
1137;DHT22;557;48.466;7.950;2023-04-01T04:03:35;9.50;1.00
1137;DHT22;557;48.466;7.950;2023-04-01T04:06:23;9.50;1.00
1137;DHT22;557;48.466;7.950;2023-04-01T04:09:12;9.50;1.00
1137;DHT22;557;48.466;7.950;2023-04-01T04:11:59;9.50;1.00
1137;DHT22;557;48.466;7.950;2023-04-01T04:14:47;9.40;1.00
1137;DHT22;557;48.466;7.950;2023-04-01T04:17:34;9.40;99.90
1137;DHT22;557;48.466;7.950;2023-04-01T04:20:21;9.40;99.90
1137;DHT22;557;48.466;7.950;2023-04-01T04:23:09;9.30;99.90
1137;DHT22;557;48.466;7.950;2023-04-01T04:25:59;9.40;99.90
1137;DHT22;557;48.466;7.950;2023-04-01T04:28:47;9.30;1.00
1137;DHT22;557;48.466;7.950;2023-04-01T04:31:34;9.30;1.00
1137;DHT22;557;48.466;7.950;2023-04-01T04:34:21;9.30;1.00
1137;DHT22;557;48.466;7.950;2023-04-01T04:37:09;9.40;1.00
1137;DHT22;557;48.466;7.950;2023-04-01T04:39:56;9.40;1.00
1137;DHT22;557;48.466;7.950;2023-04-01T04:42:45;9.40;1.00
1137;DHT22;557;48.466;7.950;2023-04-01T04:45:33;9.40;1.00
1137;DHT22;557;48.466;7.950;2023-04-01T04:48:20;9.40;1.00
1137;DHT22;557;48.466;7.950;2023-04-01T04:51:08;9.40;1.00
1137;DHT22;557;48.466;7.950;2023-04-01T04:53:55;9.40;1.00
1137;DHT22;557;48.466;7.950;2023-04-01T04:56:42;9.40;1.00
1137;DHT22;557;48.466;7.950;2023-04-01T04:59:31;9.40;1.00
1137;DHT22;557;48.466;7.950;2023-04-01T05:02:18;9.30;1.00
1137;DHT22;557;48.466;7.950;2023-04-01T05:05:06;9.30;1.00
1137;DHT22;557;48.466;7.950;2023-04-01T05:07:54;9.20;1.00
1137;DHT22;557;48.466;7.950;2023-04-01T05:10:41;9.20;1.00
1137;DHT22;557;48.466;7.950;2023-04-01T05:13:28;9.20;1.00
1137;DHT22;557;48.466;7.950;2023-04-01T05:16:19;9.20;1.00
1137;DHT22;557;48.466;7.950;2023-04-01T05:19:07;9.10;1.00
1137;DHT22;557;48.466;7.950;2023-04-01T05:21:54;9.10;1.00
1137;DHT22;557;48.466;7.950;2023-04-01T05:24:42;9.10;1.00
1137;DHT22;557;48.466;7.950;2023-04-01T05:27:29;9.10;1.00
1137;DHT22;557;48.466;7.950;2023-04-01T05:30:17;9.10;1.00
1137;DHT22;557;48.466;7.950;2023-04-01T05:33:06;9.10;1.00
1137;DHT22;557;48.466;7.950;2023-04-01T05:35:54;9.20;1.00
1137;DHT22;557;48.466;7.950;2023-04-01T05:38:42;9.10;1.00
1137;DHT22;557;48.466;7.950;2023-04-01T05:41:31;9.10;1.00
1137;DHT22;557;48.466;7.950;2023-04-01T05:44:21;9.10;1.00
1137;DHT22;557;48.466;7.950;2023-04-01T05:47:08;9.10;1.00
1137;DHT22;557;48.466;7.950;2023-04-01T05:49:57;9.20;1.00
1137;DHT22;557;48.466;7.950;2023-04-01T05:52:45;9.20;1.00
1137;DHT22;557;48.466;7.950;2023-04-01T05:55:34;9.20;1.00
1137;DHT22;557;48.466;7.950;2023-04-01T05:58:21;9.20;1.00
1137;DHT22;557;48.466;7.950;2023-04-01T06:01:10;9.20;1.00
1137;DHT22;557;48.466;7.950;2023-04-01T06:03:58;9.30;1.00
1137;DHT22;557;48.466;7.950;2023-04-01T06:06:46;9.40;1.00
1137;DHT22;557;48.466;7.950;2023-04-01T06:09:34;9.50;1.00
1137;DHT22;557;48.466;7.950;2023-04-01T06:12:37;9.50;1.00
1137;DHT22;557;48.466;7.950;2023-04-01T06:15:36;9.50;1.00
1137;DHT22;557;48.466;7.950;2023-04-01T06:18:49;9.60;1.00
1137;DHT22;557;48.466;7.950;2023-04-01T06:22:05;9.60;1.00
1137;DHT22;557;48.466;7.950;2023-04-01T06:25:09;9.70;1.00
1137;DHT22;557;48.466;7.950;2023-04-01T06:31:31;9.70;1.00
1137;DHT22;557;48.466;7.950;2023-04-01T06:37:47;9.70;1.00
1137;DHT22;557;48.466;7.950;2023-04-01T06:40:57;9.70;1.00
1137;DHT22;557;48.466;7.950;2023-04-01T06:43:55;9.70;1.00
1137;DHT22;557;48.466;7.950;2023-04-01T06:46:49;9.70;1.00
1137;DHT22;557;48.466;7.950;2023-04-01T06:49:47;9.70;1.00
1137;DHT22;557;48.466;7.950;2023-04-01T06:52:43;9.70;1.00
1137;DHT22;557;48.466;7.950;2023-04-01T06:55:38;9.60;1.00
1137;DHT22;557;48.466;7.950;2023-04-01T06:58:30;9.50;45.40
1137;DHT22;557;48.466;7.950;2023-04-01T07:01:22;9.50;38.30
1137;DHT22;557;48.466;7.950;2023-04-01T07:04:14;9.50;51.40
1137;DHT22;557;48.466;7.950;2023-04-01T07:07:08;9.50;32.90
1137;DHT22;557;48.466;7.950;2023-04-01T07:10:05;9.50;30.00
1137;DHT22;557;48.466;7.950;2023-04-01T07:12:55;9.60;6.90
1137;DHT22;557;48.466;7.950;2023-04-01T07:15:48;9.50;34.10
1137;DHT22;557;48.466;7.950;2023-04-01T07:18:40;9.60;29.30
1137;DHT22;557;48.466;7.950;2023-04-01T07:21:32;9.60;18.40
1137;DHT22;557;48.466;7.950;2023-04-01T07:24:25;9.60;22.20
1137;DHT22;557;48.466;7.950;2023-04-01T07:27:14;9.60;29.50
1137;DHT22;557;48.466;7.950;2023-04-01T07:30:03;9.60;3.80
1137;DHT22;557;48.466;7.950;2023-04-01T07:32:57;9.60;38.80
1137;DHT22;557;48.466;7.950;2023-04-01T07:35:54;9.70;8.70
1137;DHT22;557;48.466;7.950;2023-04-01T07:38:50;9.70;30.40
1137;DHT22;557;48.466;7.950;2023-04-01T07:41:45;9.70;23.70
1137;DHT22;557;48.466;7.950;2023-04-01T07:44:41;9.80;8.30
1137;DHT22;557;48.466;7.950;2023-04-01T07:47:50;9.80;22.70
1137;DHT22;557;48.466;7.950;2023-04-01T07:50:48;9.80;1.30
1137;DHT22;557;48.466;7.950;2023-04-01T07:53:42;9.80;10.00
1137;DHT22;557;48.466;7.950;2023-04-01T07:56:38;9.80;35.90
1137;DHT22;557;48.466;7.950;2023-04-01T07:59:33;9.70;43.40
1137;DHT22;557;48.466;7.950;2023-04-01T08:02:34;9.70;61.60
1137;DHT22;557;48.466;7.950;2023-04-01T08:05:29;9.60;90.50
1137;DHT22;557;48.466;7.950;2023-04-01T08:08:24;9.60;99.90
1137;DHT22;557;48.466;7.950;2023-04-01T08:11:27;9.50;99.90
1137;DHT22;557;48.466;7.950;2023-04-01T08:14:23;9.40;99.90
1137;DHT22;557;48.466;7.950;2023-04-01T08:17:18;9.40;99.90
1137;DHT22;557;48.466;7.950;2023-04-01T08:20:25;9.40;99.90
1137;DHT22;557;48.466;7.950;2023-04-01T08:23:17;9.20;99.90
1137;DHT22;557;48.466;7.950;2023-04-01T08:26:12;9.30;99.90
1137;DHT22;557;48.466;7.950;2023-04-01T08:29:03;9.20;99.90
1137;DHT22;557;48.466;7.950;2023-04-01T08:31:54;9.20;99.90
1137;DHT22;557;48.466;7.950;2023-04-01T08:34:47;9.20;99.90
1137;DHT22;557;48.466;7.950;2023-04-01T08:37:40;9.10;99.90
1137;DHT22;557;48.466;7.950;2023-04-01T08:44:24;9.10;99.90
1137;DHT22;557;48.466;7.950;2023-04-01T08:47:28;9.10;99.90
1137;DHT22;557;48.466;7.950;2023-04-01T08:50:47;9.10;99.90
1137;DHT22;557;48.466;7.950;2023-04-01T08:54:01;9.10;99.90
1137;DHT22;557;48.466;7.950;2023-04-01T08:56:55;9.10;99.90
1137;DHT22;557;48.466;7.950;2023-04-01T08:59:53;9.10;99.90
1137;DHT22;557;48.466;7.950;2023-04-01T09:02:53;9.10;99.90
1137;DHT22;557;48.466;7.950;2023-04-01T09:05:55;9.10;99.90
1137;DHT22;557;48.466;7.950;2023-04-01T09:09:09;9.10;99.90
1137;DHT22;557;48.466;7.950;2023-04-01T09:12:30;9.00;99.90
1137;DHT22;557;48.466;7.950;2023-04-01T09:15:42;9.00;99.90
1137;DHT22;557;48.466;7.950;2023-04-01T09:18:59;9.10;99.90
1137;DHT22;557;48.466;7.950;2023-04-01T09:22:02;9.10;99.90
1137;DHT22;557;48.466;7.950;2023-04-01T09:25:28;9.10;99.90
1137;DHT22;557;48.466;7.950;2023-04-01T09:28:20;9.10;99.90
1137;DHT22;557;48.466;7.950;2023-04-01T09:31:46;9.10;99.90
1137;DHT22;557;48.466;7.950;2023-04-01T09:34:53;9.10;99.90
1137;DHT22;557;48.466;7.950;2023-04-01T09:37:53;9.10;99.90
1137;DHT22;557;48.466;7.950;2023-04-01T09:40:48;9.10;99.90
1137;DHT22;557;48.466;7.950;2023-04-01T09:43:55;9.10;99.90
1137;DHT22;557;48.466;7.950;2023-04-01T09:46:57;9.20;99.90
1137;DHT22;557;48.466;7.950;2023-04-01T09:50:16;9.10;99.90
1137;DHT22;557;48.466;7.950;2023-04-01T09:53:16;9.10;99.90
1137;DHT22;557;48.466;7.950;2023-04-01T10:07:05;9.20;99.90
1137;DHT22;557;48.466;7.950;2023-04-01T10:10:27;9.20;99.90
1137;DHT22;557;48.466;7.950;2023-04-01T10:20:39;9.20;99.90
1137;DHT22;557;48.466;7.950;2023-04-01T10:27:20;9.30;99.90
1137;DHT22;557;48.466;7.950;2023-04-01T10:30:51;9.30;99.90
1137;DHT22;557;48.466;7.950;2023-04-01T10:34:07;9.40;99.90
1137;DHT22;557;48.466;7.950;2023-04-01T10:36:57;9.40;99.90
1137;DHT22;557;48.466;7.950;2023-04-01T10:40:12;9.40;99.90
1137;DHT22;557;48.466;7.950;2023-04-01T10:43:31;9.40;99.90
1137;DHT22;557;48.466;7.950;2023-04-01T10:46:45;9.30;99.90
1137;DHT22;557;48.466;7.950;2023-04-01T10:50:25;9.30;99.90
1137;DHT22;557;48.466;7.950;2023-04-01T10:53:34;9.30;99.90
1137;DHT22;557;48.466;7.950;2023-04-01T10:56:39;9.30;99.90
1137;DHT22;557;48.466;7.950;2023-04-01T11:03:31;9.30;99.90
1137;DHT22;557;48.466;7.950;2023-04-01T11:10:25;9.40;99.90
1137;DHT22;557;48.466;7.950;2023-04-01T11:13:51;9.40;99.90
1137;DHT22;557;48.466;7.950;2023-04-01T11:17:04;9.40;99.90
1137;DHT22;557;48.466;7.950;2023-04-01T11:20:45;9.40;99.90
1137;DHT22;557;48.466;7.950;2023-04-01T11:24:01;9.40;99.90
1137;DHT22;557;48.466;7.950;2023-04-01T11:27:00;9.50;99.90
1137;DHT22;557;48.466;7.950;2023-04-01T11:30:15;9.50;99.90
1137;DHT22;557;48.466;7.950;2023-04-01T11:33:07;9.50;99.90
1137;DHT22;557;48.466;7.950;2023-04-01T11:36:09;9.50;99.90
1137;DHT22;557;48.466;7.950;2023-04-01T11:39:17;9.50;99.90
1137;DHT22;557;48.466;7.950;2023-04-01T11:42:20;9.50;99.90
1137;DHT22;557;48.466;7.950;2023-04-01T11:45:19;9.50;99.90
1137;DHT22;557;48.466;7.950;2023-04-01T11:48:27;9.50;99.90
1137;DHT22;557;48.466;7.950;2023-04-01T11:54:58;9.60;99.90
1137;DHT22;557;48.466;7.950;2023-04-01T11:58:14;9.70;99.90
1137;DHT22;557;48.466;7.950;2023-04-01T12:01:17;9.80;99.90
1137;DHT22;557;48.466;7.950;2023-04-01T12:04:50;9.70;99.90
1137;DHT22;557;48.466;7.950;2023-04-01T12:08:01;9.80;99.90
1137;DHT22;557;48.466;7.950;2023-04-01T12:10:57;9.80;99.90
1137;DHT22;557;48.466;7.950;2023-04-01T12:13:52;9.80;99.90
1137;DHT22;557;48.466;7.950;2023-04-01T12:16:52;9.80;99.90
1137;DHT22;557;48.466;7.950;2023-04-01T12:19:46;9.90;99.90
1137;DHT22;557;48.466;7.950;2023-04-01T12:22:44;9.80;99.90
1137;DHT22;557;48.466;7.950;2023-04-01T12:28:59;9.80;99.90
1137;DHT22;557;48.466;7.950;2023-04-01T12:31:53;9.80;99.90
1137;DHT22;557;48.466;7.950;2023-04-01T12:34:58;9.80;99.90
1137;DHT22;557;48.466;7.950;2023-04-01T12:38:03;9.80;99.90
1137;DHT22;557;48.466;7.950;2023-04-01T12:41:10;9.80;99.90
1137;DHT22;557;48.466;7.950;2023-04-01T12:44:21;9.80;99.90
1137;DHT22;557;48.466;7.950;2023-04-01T12:47:21;9.80;99.90
1137;DHT22;557;48.466;7.950;2023-04-01T12:50:25;9.80;99.90
1137;DHT22;557;48.466;7.950;2023-04-01T12:53:29;9.80;99.90
1137;DHT22;557;48.466;7.950;2023-04-01T12:56:26;9.90;99.90
1137;DHT22;557;48.466;7.950;2023-04-01T13:02:42;9.90;99.90
1137;DHT22;557;48.466;7.950;2023-04-01T13:08:55;9.80;99.90
1137;DHT22;557;48.466;7.950;2023-04-01T13:11:57;9.80;99.90
1137;DHT22;557;48.466;7.950;2023-04-01T13:18:06;9.70;99.90
1137;DHT22;557;48.466;7.950;2023-04-01T13:21:05;9.80;99.90
1137;DHT22;557;48.466;7.950;2023-04-01T13:23:59;9.80;99.90
1137;DHT22;557;48.466;7.950;2023-04-01T13:26:56;9.80;99.90
1137;DHT22;557;48.466;7.950;2023-04-01T13:29:59;9.70;99.90
1137;DHT22;557;48.466;7.950;2023-04-01T13:32:53;9.70;99.90
1137;DHT22;557;48.466;7.950;2023-04-01T13:35:48;9.80;99.90
1137;DHT22;557;48.466;7.950;2023-04-01T13:38:52;9.90;99.90
1137;DHT22;557;48.466;7.950;2023-04-01T13:42:06;10.00;99.90
1137;DHT22;557;48.466;7.950;2023-04-01T13:45:04;10.10;99.90
1137;DHT22;557;48.466;7.950;2023-04-01T13:48:29;10.20;99.90
1137;DHT22;557;48.466;7.950;2023-04-01T13:51:37;10.20;99.90
1137;DHT22;557;48.466;7.950;2023-04-01T13:54:49;10.30;99.90
1137;DHT22;557;48.466;7.950;2023-04-01T13:57:52;10.40;99.90
1137;DHT22;557;48.466;7.950;2023-04-01T14:00:56;10.50;99.90
1137;DHT22;557;48.466;7.950;2023-04-01T14:07:14;10.50;94.50
1137;DHT22;557;48.466;7.950;2023-04-01T14:10:19;10.50;99.90
1137;DHT22;557;48.466;7.950;2023-04-01T14:13:12;10.50;99.90
1137;DHT22;557;48.466;7.950;2023-04-01T14:16:21;10.50;99.90
1137;DHT22;557;48.466;7.950;2023-04-01T14:19:21;10.50;95.10
1137;DHT22;557;48.466;7.950;2023-04-01T14:22:25;10.50;99.90
1137;DHT22;557;48.466;7.950;2023-04-01T14:25:45;10.50;96.50
1137;DHT22;557;48.466;7.950;2023-04-01T14:28:41;10.60;93.60
1137;DHT22;557;48.466;7.950;2023-04-01T14:34:54;10.70;99.90
1137;DHT22;557;48.466;7.950;2023-04-01T14:38:04;10.70;99.90
1137;DHT22;557;48.466;7.950;2023-04-01T14:40:56;10.70;93.60
1137;DHT22;557;48.466;7.950;2023-04-01T14:44:11;10.80;70.60
1137;DHT22;557;48.466;7.950;2023-04-01T14:47:27;10.80;39.20
1137;DHT22;557;48.466;7.950;2023-04-01T14:50:18;10.80;61.70
1137;DHT22;557;48.466;7.950;2023-04-01T14:53:16;10.80;65.40
1137;DHT22;557;48.466;7.950;2023-04-01T14:56:10;10.80;77.90
1137;DHT22;557;48.466;7.950;2023-04-01T14:58:57;10.80;74.50
1137;DHT22;557;48.466;7.950;2023-04-01T15:01:51;10.80;91.70
1137;DHT22;557;48.466;7.950;2023-04-01T15:04:57;10.90;77.00
1137;DHT22;557;48.466;7.950;2023-04-01T15:07:59;10.90;1.00
1137;DHT22;557;48.466;7.950;2023-04-01T15:11:15;10.90;25.90
1137;DHT22;557;48.466;7.950;2023-04-01T15:14:27;10.90;19.90
1137;DHT22;557;48.466;7.950;2023-04-01T15:17:27;11.00;49.80
1137;DHT22;557;48.466;7.950;2023-04-01T15:20:35;11.00;26.70
1137;DHT22;557;48.466;7.950;2023-04-01T15:23:37;11.00;34.30
1137;DHT22;557;48.466;7.950;2023-04-01T15:26:43;11.00;76.20
1137;DHT22;557;48.466;7.950;2023-04-01T15:33:08;11.00;25.50
1137;DHT22;557;48.466;7.950;2023-04-01T15:36:07;11.00;21.90
1137;DHT22;557;48.466;7.950;2023-04-01T15:39:04;11.00;22.30
1137;DHT22;557;48.466;7.950;2023-04-01T15:42:16;11.10;14.50
1137;DHT22;557;48.466;7.950;2023-04-01T15:45:17;11.10;1.00
1137;DHT22;557;48.466;7.950;2023-04-01T15:48:18;11.10;1.00
1137;DHT22;557;48.466;7.950;2023-04-01T15:51:19;11.10;1.00
1137;DHT22;557;48.466;7.950;2023-04-01T15:54:38;11.20;1.00
1137;DHT22;557;48.466;7.950;2023-04-01T15:57:33;11.20;1.00
1137;DHT22;557;48.466;7.950;2023-04-01T16:00:25;11.20;1.00
1137;DHT22;557;48.466;7.950;2023-04-01T16:03:22;11.20;1.00
1137;DHT22;557;48.466;7.950;2023-04-01T16:06:38;11.30;1.00
1137;DHT22;557;48.466;7.950;2023-04-01T16:09:52;11.30;1.00
1137;DHT22;557;48.466;7.950;2023-04-01T16:12:51;11.20;23.20
1137;DHT22;557;48.466;7.950;2023-04-01T16:15:44;11.20;1.20
1137;DHT22;557;48.466;7.950;2023-04-01T16:18:58;11.20;1.00
1137;DHT22;557;48.466;7.950;2023-04-01T16:21:54;11.30;99.90
1137;DHT22;557;48.466;7.950;2023-04-01T16:24:49;11.40;49.70
1137;DHT22;557;48.466;7.950;2023-04-01T16:27:44;11.40;99.90
1137;DHT22;557;48.466;7.950;2023-04-01T16:30:36;11.40;98.20
1137;DHT22;557;48.466;7.950;2023-04-01T16:33:35;11.40;99.90
1137;DHT22;557;48.466;7.950;2023-04-01T16:36:29;11.40;33.00
1137;DHT22;557;48.466;7.950;2023-04-01T16:39:28;11.30;99.90
1137;DHT22;557;48.466;7.950;2023-04-01T16:42:25;11.30;1.00
1137;DHT22;557;48.466;7.950;2023-04-01T16:45:23;11.30;1.00
1137;DHT22;557;48.466;7.950;2023-04-01T16:48:14;11.30;1.00
1137;DHT22;557;48.466;7.950;2023-04-01T16:51:04;11.20;1.00
1137;DHT22;557;48.466;7.950;2023-04-01T16:54:04;11.20;1.00
1137;DHT22;557;48.466;7.950;2023-04-01T16:57:02;11.10;1.00
1137;DHT22;557;48.466;7.950;2023-04-01T16:59:56;11.10;1.00
1137;DHT22;557;48.466;7.950;2023-04-01T17:02:52;11.00;1.00
1137;DHT22;557;48.466;7.950;2023-04-01T17:06:02;10.90;1.00
1137;DHT22;557;48.466;7.950;2023-04-01T17:09:10;10.90;1.00
1137;DHT22;557;48.466;7.950;2023-04-01T17:12:06;10.90;1.00
1137;DHT22;557;48.466;7.950;2023-04-01T17:15:04;10.90;1.00
1137;DHT22;557;48.466;7.950;2023-04-01T17:17:58;10.80;1.00
1137;DHT22;557;48.466;7.950;2023-04-01T17:20:50;10.80;1.00
1137;DHT22;557;48.466;7.950;2023-04-01T17:23:47;10.70;1.00
1137;DHT22;557;48.466;7.950;2023-04-01T17:26:40;10.80;1.00
1137;DHT22;557;48.466;7.950;2023-04-01T17:29:38;10.70;1.00
1137;DHT22;557;48.466;7.950;2023-04-01T17:32:38;10.70;1.00
1137;DHT22;557;48.466;7.950;2023-04-01T17:35:32;10.60;1.00
1137;DHT22;557;48.466;7.950;2023-04-01T17:38:40;10.60;1.00
1137;DHT22;557;48.466;7.950;2023-04-01T17:41:42;10.60;1.00
1137;DHT22;557;48.466;7.950;2023-04-01T17:44:49;10.60;1.00
1137;DHT22;557;48.466;7.950;2023-04-01T17:47:52;10.70;1.00
1137;DHT22;557;48.466;7.950;2023-04-01T17:50:52;10.60;1.00
1137;DHT22;557;48.466;7.950;2023-04-01T17:53:47;10.60;32.70
1137;DHT22;557;48.466;7.950;2023-04-01T17:56:45;10.50;8.60
1137;DHT22;557;48.466;7.950;2023-04-01T17:59:37;10.40;26.60
1137;DHT22;557;48.466;7.950;2023-04-01T18:02:33;10.40;26.30
1137;DHT22;557;48.466;7.950;2023-04-01T18:05:45;10.40;1.00
1137;DHT22;557;48.466;7.950;2023-04-01T18:08:54;10.30;13.70
1137;DHT22;557;48.466;7.950;2023-04-01T18:11:54;10.30;7.90
1137;DHT22;557;48.466;7.950;2023-04-01T18:14:57;10.20;31.40
1137;DHT22;557;48.466;7.950;2023-04-01T18:18:04;10.20;13.00
1137;DHT22;557;48.466;7.950;2023-04-01T18:21:00;10.20;14.00
1137;DHT22;557;48.466;7.950;2023-04-01T18:23:53;10.20;41.60
1137;DHT22;557;48.466;7.950;2023-04-01T18:26:44;10.00;99.90
1137;DHT22;557;48.466;7.950;2023-04-01T18:29:39;9.80;99.90
1137;DHT22;557;48.466;7.950;2023-04-01T18:32:33;9.70;99.90
1137;DHT22;557;48.466;7.950;2023-04-01T18:35:29;9.60;99.90
1137;DHT22;557;48.466;7.950;2023-04-01T18:38:26;9.50;99.90
1137;DHT22;557;48.466;7.950;2023-04-01T18:41:19;9.50;99.90
1137;DHT22;557;48.466;7.950;2023-04-01T18:44:22;9.50;99.90
1137;DHT22;557;48.466;7.950;2023-04-01T18:47:22;9.40;99.90
1137;DHT22;557;48.466;7.950;2023-04-01T18:50:18;9.40;99.90
1137;DHT22;557;48.466;7.950;2023-04-01T18:53:20;9.40;99.90
1137;DHT22;557;48.466;7.950;2023-04-01T18:56:11;9.40;99.90
1137;DHT22;557;48.466;7.950;2023-04-01T18:59:05;9.30;99.90
1137;DHT22;557;48.466;7.950;2023-04-01T19:02:02;9.20;99.90
1137;DHT22;557;48.466;7.950;2023-04-01T19:04:57;9.10;99.90
1137;DHT22;557;48.466;7.950;2023-04-01T19:07:49;9.10;99.90
1137;DHT22;557;48.466;7.950;2023-04-01T19:10:42;9.00;99.90
1137;DHT22;557;48.466;7.950;2023-04-01T19:13:42;9.00;99.90
1137;DHT22;557;48.466;7.950;2023-04-01T19:16:40;9.00;99.90
1137;DHT22;557;48.466;7.950;2023-04-01T19:19:41;9.00;99.90
1137;DHT22;557;48.466;7.950;2023-04-01T19:22:50;9.10;99.90
1137;DHT22;557;48.466;7.950;2023-04-01T19:25:43;9.20;99.90
1137;DHT22;557;48.466;7.950;2023-04-01T19:28:43;9.30;99.90
1137;DHT22;557;48.466;7.950;2023-04-01T19:31:42;9.30;99.90
1137;DHT22;557;48.466;7.950;2023-04-01T19:34:38;9.40;99.90
1137;DHT22;557;48.466;7.950;2023-04-01T19:37:35;9.40;99.90
1137;DHT22;557;48.466;7.950;2023-04-01T19:40:53;9.50;99.90
1137;DHT22;557;48.466;7.950;2023-04-01T19:43:50;9.40;99.90
1137;DHT22;557;48.466;7.950;2023-04-01T19:46:44;9.20;99.90
1137;DHT22;557;48.466;7.950;2023-04-01T19:49:42;8.90;99.90
1137;DHT22;557;48.466;7.950;2023-04-01T19:52:36;8.70;99.90
1137;DHT22;557;48.466;7.950;2023-04-01T19:55:33;8.60;99.90
1137;DHT22;557;48.466;7.950;2023-04-01T19:58:31;8.60;99.90
1137;DHT22;557;48.466;7.950;2023-04-01T20:01:24;8.50;99.90
1137;DHT22;557;48.466;7.950;2023-04-01T20:04:15;8.40;99.90
1137;DHT22;557;48.466;7.950;2023-04-01T20:07:08;8.40;99.90
1137;DHT22;557;48.466;7.950;2023-04-01T20:10:04;8.40;99.90
1137;DHT22;557;48.466;7.950;2023-04-01T20:13:01;8.40;99.90
1137;DHT22;557;48.466;7.950;2023-04-01T20:16:01;8.40;99.90
1137;DHT22;557;48.466;7.950;2023-04-01T20:18:52;8.30;99.90
1137;DHT22;557;48.466;7.950;2023-04-01T20:21:45;8.30;99.90
1137;DHT22;557;48.466;7.950;2023-04-01T20:24:36;8.20;99.90
1137;DHT22;557;48.466;7.950;2023-04-01T20:27:32;8.20;99.90
1137;DHT22;557;48.466;7.950;2023-04-01T20:30:44;8.20;99.90
1137;DHT22;557;48.466;7.950;2023-04-01T20:37:21;8.10;99.90
1137;DHT22;557;48.466;7.950;2023-04-01T20:40:26;8.10;99.90
1137;DHT22;557;48.466;7.950;2023-04-01T20:43:48;8.10;99.90
1137;DHT22;557;48.466;7.950;2023-04-01T20:46:48;8.10;99.90
1137;DHT22;557;48.466;7.950;2023-04-01T20:49:46;8.10;99.90
1137;DHT22;557;48.466;7.950;2023-04-01T20:52:42;8.10;99.90
1137;DHT22;557;48.466;7.950;2023-04-01T20:59:23;8.10;99.90
1137;DHT22;557;48.466;7.950;2023-04-01T21:02:31;8.20;99.90
1137;DHT22;557;48.466;7.950;2023-04-01T21:05:44;8.20;99.90
1137;DHT22;557;48.466;7.950;2023-04-01T21:09:02;8.20;99.90
1137;DHT22;557;48.466;7.950;2023-04-01T21:12:00;8.20;99.90
1137;DHT22;557;48.466;7.950;2023-04-01T21:15:01;8.20;99.90